Time;durP1;ratioP1;P1;durP2;ratioP2;P2;SDS_P1;SDS_P2;PMS_P1;PMS_P2;Temp;Humidity;BMP_temperature;BMP_pressure;BME280_temperature;BME280_humidity;BME280_pressure;Samples;Min_cycle;Max_cycle;Signal;HPM_P1;HPM_P2
2023/05/17 00:01:09;;;;;;;6.43;1.30;;;;;;;14.53;40.85;101524.94;5026121;27;96872;-74
2023/05/17 00:03:35;;;;;;;7.22;1.77;;;;;;;14.48;41.18;101517.16;5028238;27;96879;-74
2023/05/17 00:06:02;;;;;;;9.50;1.75;;;;;;;14.51;41.56;101516.13;5025311;27;98929;-74
2023/05/17 00:08:28;;;;;;;8.73;1.80;;;;;;;14.22;42.16;101522.56;5014464;27;99290;-73
2023/05/17 00:10:55;;;;;;;6.75;1.73;;;;;;;13.75;43.67;101524.34;5020900;27;96809;-73
2023/05/17 00:13:21;;;;;;;7.10;1.63;;;;;;;14.00;43.44;101518.97;5019039;27;97174;-74
2023/05/17 00:15:52;;;;;;;7.38;1.63;;;;;;;14.06;43.64;101513.44;5027603;27;99096;-74
2023/05/17 00:18:19;;;;;;;10.07;2.72;;;;;;;14.03;43.79;101519.75;5024914;27;99165;-72
2023/05/17 00:20:45;;;;;;;7.32;1.70;;;;;;;14.26;43.80;101519.72;5021815;27;97669;-74
2023/05/17 00:23:12;;;;;;;6.57;1.88;;;;;;;14.23;43.82;101522.53;5018118;27;98535;-73
2023/05/17 00:25:38;;;;;;;11.18;1.90;;;;;;;14.08;44.35;101519.56;5022248;27;101335;-74
2023/05/17 00:28:05;;;;;;;10.32;1.90;;;;;;;14.12;44.38;101529.16;5024848;27;97533;-72
2023/05/17 00:30:32;;;;;;;9.75;2.10;;;;;;;13.88;45.15;101518.53;5022835;27;97002;-75
2023/05/17 00:33:00;;;;;;;5.43;2.08;;;;;;;13.74;45.71;101523.47;5021375;27;96964;-73
2023/05/17 00:35:27;;;;;;;8.40;2.33;;;;;;;13.63;46.46;101525.66;5022548;27;100101;-73
2023/05/17 00:37:53;;;;;;;7.45;2.03;;;;;;;13.62;46.49;101526.56;5022074;27;97355;-74
2023/05/17 00:40:23;;;;;;;14.95;2.45;;;;;;;13.75;46.17;101525.19;5020372;27;96828;-73
2023/05/17 00:42:49;;;;;;;8.70;2.10;;;;;;;13.78;46.38;101522.44;5023667;27;97232;-73
2023/05/17 00:45:16;;;;;;;8.93;2.47;;;;;;;13.72;46.57;101519.16;5023184;27;100832;-73
2023/05/17 00:47:42;;;;;;;13.45;3.25;;;;;;;13.59;47.14;101529.31;5025932;27;99146;-73
2023/05/17 00:50:11;;;;;;;17.38;2.78;;;;;;;13.56;47.54;101526.78;5022277;27;97293;-74
2023/05/17 00:52:38;;;;;;;10.82;2.80;;;;;;;13.14;48.85;101539.75;5025920;27;99220;-73
2023/05/17 00:55:05;;;;;;;7.63;2.45;;;;;;;13.33;48.53;101537.31;5031960;27;98924;-74
2023/05/17 00:57:32;;;;;;;10.98;2.22;;;;;;;13.56;47.96;101532.09;5023205;27;99100;-73
2023/05/17 00:59:59;;;;;;;9.73;2.22;;;;;;;13.32;48.61;101528.53;5029515;27;97162;-74
2023/05/17 01:02:27;;;;;;;13.77;2.72;;;;;;;13.54;48.37;101536.59;5029294;27;96784;-74
2023/05/17 01:04:54;;;;;;;13.07;2.58;;;;;;;13.24;49.20;101525.25;5026971;27;99072;-74
2023/05/17 01:07:22;;;;;;;13.85;2.75;;;;;;;13.26;49.55;101527.88;5018639;27;98885;-75
2023/05/17 01:09:49;;;;;;;16.77;2.78;;;;;;;13.44;49.15;101529.88;5024659;27;97723;-73
2023/05/17 01:12:28;;;;;;;10.68;2.33;;;;;;;13.54;49.00;101525.97;5026864;27;97038;-72
2023/05/17 01:15:03;;;;;;;9.57;2.65;;;;;;;13.35;49.73;101520.44;5028429;27;99487;-73
2023/05/17 01:17:37;;;;;;;11.20;2.35;;;;;;;13.41;49.89;101519.34;5028156;27;98427;-74
2023/05/17 01:20:12;;;;;;;12.63;3.10;;;;;;;13.40;49.96;101530.88;5029125;27;97895;-72
2023/05/17 01:22:51;;;;;;;7.80;2.58;;;;;;;13.57;49.37;101528.53;5023163;27;96881;-74
2023/05/17 01:25:34;;;;;;;13.20;3.55;;;;;;;13.50;49.98;101533.19;5029050;27;99069;-73
2023/05/17 01:28:03;;;;;;;13.68;2.78;;;;;;;13.29;50.47;101528.63;5019883;27;98922;-72
2023/05/17 01:30:32;;;;;;;14.45;3.53;;;;;;;13.48;50.38;101529.72;5024687;27;97111;-72
2023/05/17 01:33:00;;;;;;;13.38;2.83;;;;;;;13.31;51.12;101533.88;5025349;27;96968;-71
2023/05/17 01:35:26;;;;;;;11.65;3.08;;;;;;;13.46;50.60;101536.84;5027838;27;98706;-71
2023/05/17 01:37:53;;;;;;;11.70;3.22;;;;;;;13.48;50.35;101548.28;5027773;27;98761;-71
2023/05/17 01:40:21;;;;;;;17.08;3.47;;;;;;;13.45;50.67;101543.09;5022033;27;96902;-74
2023/05/17 01:42:53;;;;;;;14.55;3.20;;;;;;;13.28;51.28;101547.25;5028699;27;96715;-73
2023/05/17 01:45:24;;;;;;;16.17;3.25;;;;;;;13.21;51.71;101548.34;5022054;27;99224;-72
2023/05/17 01:48:00;;;;;;;14.68;3.28;;;;;;;13.19;51.82;101552.88;5022696;27;98764;-73
2023/05/17 01:50:30;;;;;;;12.00;2.90;;;;;;;12.65;53.37;101556.34;5021973;27;97326;-75
2023/05/17 01:53:05;;;;;;;14.63;3.20;;;;;;;12.80;53.18;101550.53;5029472;27;97644;-74
2023/05/17 01:55:42;;;;;;;11.93;3.20;;;;;;;13.03;52.29;101558.66;5029387;27;97620;-74
2023/05/17 01:58:11;;;;;;;13.27;3.10;;;;;;;13.20;52.11;101560.75;5028554;27;99365;-74
2023/05/17 02:00:41;;;;;;;11.85;3.17;;;;;;;13.24;51.88;101557.09;5022555;27;98226;-74
2023/05/17 02:03:07;;;;;;;17.70;3.53;;;;;;;13.16;52.25;101562.66;5029678;27;96843;-74
2023/05/17 02:05:33;;;;;;;16.20;3.38;;;;;;;13.28;51.98;101552.53;5024374;27;99213;-72
2023/05/17 02:08:00;;;;;;;15.40;3.17;;;;;;;13.04;52.64;101556.88;5022593;27;99394;-75
2023/05/17 02:10:26;;;;;;;15.45;2.60;;;;;;;13.29;51.88;101559.59;5027221;27;97089;-73
2023/05/17 02:12:52;;;;;;;16.35;3.55;;;;;;;13.16;52.40;101554.69;5021628;27;96957;-73
2023/05/17 02:15:19;;;;;;;11.77;3.13;;;;;;;13.25;52.14;101555.31;5028309;27;99267;-73
2023/05/17 02:17:47;;;;;;;21.80;3.92;;;;;;;13.44;51.72;101556.44;5026653;27;99849;-74
2023/05/17 02:20:13;;;;;;;16.98;5.00;;;;;;;13.42;51.89;101547.63;5024769;27;97493;-73
2023/05/17 02:22:40;;;;;;;14.35;2.85;;;;;;;13.58;51.28;101548.84;5030617;27;97212;-73
2023/05/17 02:25:07;;;;;;;15.25;3.33;;;;;;;13.60;51.42;101559.41;5029823;27;99336;-73
2023/05/17 02:27:34;;;;;;;13.40;3.25;;;;;;;13.57;51.36;101547.13;5028043;27;97749;-74
2023/05/17 02:30:02;;;;;;;12.32;3.13;;;;;;;13.66;51.20;101546.78;5027172;27;96810;-73
2023/05/17 02:32:29;;;;;;;12.15;3.78;;;;;;;13.90;50.40;101545.03;5019593;27;98136;-73
2023/05/17 02:34:56;;;;;;;10.65;3.35;;;;;;;13.79;50.93;101548.06;5022102;27;99082;-73
2023/05/17 02:37:23;;;;;;;8.02;2.60;;;;;;;13.84;50.82;101539.94;5014564;27;97760;-73
2023/05/17 02:39:49;;;;;;;10.45;3.08;;;;;;;13.59;51.53;101537.28;5027200;27;96828;-74
2023/05/17 02:42:16;;;;;;;12.93;3.13;;;;;;;13.38;52.29;101546.03;5019725;27;98842;-74
2023/05/17 02:44:42;;;;;;;12.63;3.28;;;;;;;13.69;51.48;101543.16;5025650;27;98249;-74
2023/05/17 02:47:09;;;;;;;15.15;3.05;;;;;;;13.46;52.25;101541.28;5024224;27;98123;-74
2023/05/17 02:49:35;;;;;;;14.52;3.53;;;;;;;13.25;52.92;101534.09;5024923;27;98279;-74
2023/05/17 02:52:03;;;;;;;14.90;3.83;;;;;;;13.41;52.55;101541.47;5033239;27;97471;-75
2023/05/17 02:54:29;;;;;;;15.68;3.22;;;;;;;13.67;52.01;101537.00;5026120;27;99434;-74
2023/05/17 02:56:56;;;;;;;15.57;3.55;;;;;;;13.61;52.02;101542.53;5027305;27;98776;-73
2023/05/17 02:59:22;;;;;;;14.10;2.70;;;;;;;13.44;52.45;101545.81;5029215;27;99710;-75
2023/05/17 03:01:49;;;;;;;14.15;3.67;;;;;;;13.32;53.28;101543.56;5024346;27;98449;-75
2023/05/17 03:04:15;;;;;;;16.88;3.30;;;;;;;13.29;53.20;101551.63;5027789;27;99149;-73
2023/05/17 03:06:41;;;;;;;13.23;3.38;;;;;;;13.39;53.19;101548.59;5020293;27;98930;-73
2023/05/17 03:09:09;;;;;;;13.43;3.85;;;;;;;13.68;52.33;101558.22;5027905;27;98795;-74
2023/05/17 03:11:36;;;;;;;16.23;3.67;;;;;;;13.49;52.59;101560.66;5021713;27;97086;-74
2023/05/17 03:14:02;;;;;;;12.23;3.33;;;;;;;13.42;52.82;101560.91;5020120;27;99337;-73
2023/05/17 03:16:29;;;;;;;15.80;3.83;;;;;;;13.48;52.75;101564.22;5025698;27;98875;-75
2023/05/17 03:18:55;;;;;;;17.80;3.83;;;;;;;13.47;52.69;101570.44;5018121;27;96890;-75
2023/05/17 03:21:21;;;;;;;15.15;3.63;;;;;;;13.08;53.90;101564.66;5030811;27;97504;-75
2023/05/17 03:23:48;;;;;;;15.10;3.58;;;;;;;13.25;53.53;101563.28;5022448;27;100650;-75
2023/05/17 03:26:17;;;;;;;13.27;3.00;;;;;;;12.98;54.29;101567.69;5018112;27;98842;-73
2023/05/17 03:28:47;;;;;;;17.05;3.72;;;;;;;13.39;53.35;101564.53;5024373;27;98652;-74
2023/05/17 03:31:13;;;;;;;9.70;3.50;;;;;;;13.27;53.76;101577.34;5023876;27;96981;-73
2023/05/17 03:33:40;;;;;;;18.40;4.65;;;;;;;13.45;53.33;101574.09;5025700;27;97844;-73
2023/05/17 03:36:06;;;;;;;14.85;3.08;;;;;;;13.42;53.18;101576.84;5023702;27;98118;-73
2023/05/17 03:38:33;;;;;;;13.98;3.42;;;;;;;13.68;52.55;101579.47;5026580;27;96759;-73
2023/05/17 03:40:59;;;;;;;17.58;4.03;;;;;;;13.68;52.78;101578.59;5021638;27;96861;-74
2023/05/17 03:43:40;;;;;;;15.75;3.67;;;;;;;13.77;52.49;101576.50;5024408;27;98945;-74
2023/05/17 03:46:06;;;;;;;17.30;3.60;;;;;;;13.98;51.84;101581.00;5021583;27;98779;-74
2023/05/17 03:48:32;;;;;;;20.33;4.32;;;;;;;13.86;52.28;101584.13;5024820;27;96887;-75
2023/05/17 03:50:59;;;;;;;16.30;3.90;;;;;;;13.88;51.98;101589.38;5022801;27;99098;-75
2023/05/17 03:53:25;;;;;;;15.35;3.53;;;;;;;13.74;52.50;101584.56;5022425;28;98944;-73
2023/05/17 03:55:52;;;;;;;18.25;3.85;;;;;;;13.84;52.44;101598.41;5022713;27;98786;-74
2023/05/17 03:58:18;;;;;;;18.17;3.97;;;;;;;14.00;51.96;101604.00;5026302;27;96932;-74
2023/05/17 04:00:46;;;;;;;13.13;3.42;;;;;;;13.95;52.25;101606.84;5019484;27;96944;-74
2023/05/17 04:03:12;;;;;;;16.10;4.20;;;;;;;13.78;52.51;101606.59;5030273;27;99257;-74
2023/05/17 04:05:39;;;;;;;17.48;4.22;;;;;;;13.70;52.93;101609.50;5022960;27;98802;-74
2023/05/17 04:08:05;;;;;;;17.02;3.90;;;;;;;13.60;53.21;101610.72;5022694;27;97542;-74
2023/05/17 04:10:32;;;;;;;18.38;3.90;;;;;;;13.51;53.25;101621.69;5023970;27;98629;-74
2023/05/17 04:12:59;;;;;;;17.00;3.55;;;;;;;13.38;53.56;101621.22;5023252;27;98860;-75
2023/05/17 04:15:25;;;;;;;19.48;4.18;;;;;;;13.50;53.58;101625.25;5018903;27;98834;-74
2023/05/17 04:17:53;;;;;;;10.75;3.00;;;;;;;13.05;55.04;101633.75;5024313;27;97001;-75
2023/05/17 04:20:19;;;;;;;11.93;3.08;;;;;;;13.18;54.81;101622.78;5019927;27;97861;-74
2023/05/17 04:22:45;;;;;;;19.27;3.75;;;;;;;13.20;54.86;101628.88;5022524;27;98813;-74
2023/05/17 04:25:12;;;;;;;12.07;3.70;;;;;;;13.38;54.46;101620.34;5026943;27;97810;-74
2023/05/17 04:27:38;;;;;;;16.83;4.38;;;;;;;13.28;54.67;101618.91;5016856;27;97138;-74
2023/05/17 04:30:08;;;;;;;13.50;3.67;;;;;;;13.37;54.56;101630.09;5017957;27;97001;-74
2023/05/17 04:32:34;;;;;;;15.00;4.00;;;;;;;13.49;53.90;101632.34;5021143;27;99258;-74
2023/05/17 04:35:05;;;;;;;20.50;4.65;;;;;;;13.65;53.49;101637.16;5021643;27;99726;-73
2023/05/17 04:37:31;;;;;;;14.35;3.90;;;;;;;13.87;52.76;101635.47;5017342;27;98851;-74
2023/05/17 04:39:58;;;;;;;13.38;4.13;;;;;;;14.10;52.22;101634.66;5019460;27;96964;-74
2023/05/17 04:42:25;;;;;;;15.10;4.18;;;;;;;14.20;51.98;101647.56;5015292;27;99002;-74
2023/05/17 04:44:51;;;;;;;9.45;3.72;;;;;;;13.96;52.31;101651.09;5026790;27;100743;-74
2023/05/17 04:47:18;;;;;;;16.40;3.88;;;;;;;13.96;52.51;101651.09;5015671;27;96894;-74
2023/05/17 04:49:44;;;;;;;13.00;3.67;;;;;;;14.03;52.28;101657.94;5022426;27;96926;-72
2023/05/17 04:52:12;;;;;;;18.88;4.03;;;;;;;14.33;51.23;101650.63;5019124;27;98896;-73
2023/05/17 04:54:38;;;;;;;17.25;4.50;;;;;;;14.21;51.63;101664.38;5020778;27;99340;-74
2023/05/17 04:57:08;;;;;;;15.10;4.88;;;;;;;14.22;51.10;101674.09;5016388;27;96873;-74
2023/05/17 04:59:34;;;;;;;17.00;5.28;;;;;;;14.13;51.41;101675.28;5020363;27;97498;-73
2023/05/17 05:02:00;;;;;;;19.60;4.30;;;;;;;14.27;50.65;101677.44;5023491;27;97655;-73
2023/05/17 05:04:27;;;;;;;22.42;4.65;;;;;;;14.65;49.94;101679.59;5015114;27;99026;-73
2023/05/17 05:06:53;;;;;;;12.40;4.47;;;;;;;14.83;49.29;101679.84;5025037;27;97964;-73
2023/05/17 05:09:21;;;;;;;25.45;4.00;;;;;;;15.09;48.60;101682.34;5021915;27;100343;-74
2023/05/17 05:11:47;;;;;;;22.30;3.80;;;;;;;15.12;48.08;101685.75;5014693;27;99577;-73
2023/05/17 05:14:13;;;;;;;15.43;3.22;;;;;;;15.43;47.19;101689.84;5024454;27;101597;-74
2023/05/17 05:16:40;;;;;;;13.88;2.97;;;;;;;15.79;46.05;101696.34;5026259;27;96801;-74
2023/05/17 05:19:07;;;;;;;16.65;4.07;;;;;;;15.86;46.20;101699.63;5015604;27;96902;-75
2023/05/17 05:21:34;;;;;;;17.90;4.55;;;;;;;15.90;45.55;101702.09;5021018;27;99390;-75
2023/05/17 05:24:00;;;;;;;17.38;3.58;;;;;;;16.05;45.12;101715.69;5013148;27;98138;-74
2023/05/17 05:26:28;;;;;;;20.40;4.10;;;;;;;15.95;45.58;101715.22;5019566;27;97202;-74
2023/05/17 05:28:54;;;;;;;17.42;4.30;;;;;;;16.45;44.29;101712.16;5021052;27;97148;-76
2023/05/17 05:31:21;;;;;;;18.80;4.13;;;;;;;16.66;43.82;101708.56;5011527;27;100953;-75
2023/05/17 05:33:47;;;;;;;24.65;4.57;;;;;;;16.41;44.69;101714.09;5027415;27;98881;-75
2023/05/17 05:36:13;;;;;;;16.52;4.00;;;;;;;16.08;45.45;101719.09;5019137;27;96759;-74
2023/05/17 05:38:40;;;;;;;14.55;3.92;;;;;;;15.89;45.49;101718.13;5035159;27;97014;-75
2023/05/17 05:41:06;;;;;;;21.23;4.10;;;;;;;15.89;45.84;101726.13;5025083;27;99112;-75
2023/05/17 05:43:36;;;;;;;14.95;4.25;;;;;;;15.82;45.77;101725.53;5024387;27;97597;-75
2023/05/17 05:46:02;;;;;;;15.48;3.70;;;;;;;15.92;45.05;101731.34;5029459;27;98238;-74
2023/05/17 05:48:29;;;;;;;27.02;4.63;;;;;;;16.14;44.57;101742.84;5031348;27;96860;-75
2023/05/17 05:50:55;;;;;;;15.52;3.38;;;;;;;16.40;43.24;101744.38;5029507;27;99577;-75
2023/05/17 05:53:21;;;;;;;16.30;3.60;;;;;;;15.88;43.99;101745.75;5028679;27;99248;-74
2023/05/17 05:55:49;;;;;;;18.40;3.33;;;;;;;15.87;43.61;101744.88;5023340;27;97580;-74
2023/05/17 05:58:15;;;;;;;16.58;4.07;;;;;;;15.98;43.02;101751.53;5027722;27;96986;-74
2023/05/17 06:00:43;;;;;;;15.25;3.22;;;;;;;15.94;42.90;101745.50;5028110;27;99029;-73
2023/05/17 06:03:10;;;;;;;18.58;4.22;;;;;;;16.27;42.62;101748.53;5022068;27;98820;-74
2023/05/17 06:05:37;;;;;;;16.02;3.15;;;;;;;16.28;41.87;101750.22;5020511;27;97635;-74
2023/05/17 06:08:03;;;;;;;18.90;3.10;;;;;;;16.39;41.50;101744.44;5026536;27;96994;-74
2023/05/17 06:10:30;;;;;;;20.95;3.75;;;;;;;16.23;40.58;101753.09;5029777;27;99278;-75
2023/05/17 06:12:56;;;;;;;13.18;2.60;;;;;;;15.94;40.22;101761.47;5030094;27;99738;-75
2023/05/17 06:15:23;;;;;;;20.13;2.92;;;;;;;15.84;40.07;101768.09;5029051;27;96808;-75
2023/05/17 06:17:51;;;;;;;14.20;2.50;;;;;;;15.94;39.90;101775.69;5028792;27;96829;-75
2023/05/17 06:20:17;;;;;;;16.73;3.22;;;;;;;16.23;38.89;101778.91;5026477;27;98917;-73
2023/05/17 06:22:44;;;;;;;16.75;3.35;;;;;;;16.25;38.91;101772.59;5020513;27;99244;-73
2023/05/17 06:25:10;;;;;;;15.90;3.15;;;;;;;16.01;38.89;101772.75;5027019;27;97021;-73
2023/05/17 06:27:37;;;;;;;19.92;3.35;;;;;;;15.92;39.29;101766.88;5024437;27;97322;-75
2023/05/17 06:30:06;;;;;;;15.82;2.53;;;;;;;16.18;38.97;101775.56;5019430;27;98925;-74
2023/05/17 06:32:33;;;;;;;31.70;9.02;;;;;;;16.30;38.30;101773.25;5026550;27;99349;-74
2023/05/17 06:35:01;;;;;;;11.95;2.40;;;;;;;16.46;37.55;101781.47;5024436;27;96867;-72
2023/05/17 06:37:27;;;;;;;18.02;2.67;;;;;;;16.26;37.20;101785.00;5033849;27;97018;-75
2023/05/17 06:40:01;;;;;;;14.93;2.67;;;;;;;16.28;37.58;101788.44;5024234;27;100677;-74
2023/05/17 06:42:27;;;;;;;17.00;2.85;;;;;;;16.05;38.40;101790.34;5020556;27;98855;-75
2023/05/17 06:44:54;;;;;;;15.85;2.38;;;;;;;15.75;38.84;101788.00;5026060;27;99500;-74
2023/05/17 06:47:20;;;;;;;15.45;2.70;;;;;;;15.91;38.04;101782.91;5030406;27;97779;-75
2023/05/17 06:49:46;;;;;;;12.90;2.67;;;;;;;15.98;37.95;101789.72;5023491;27;98953;-75
2023/05/17 06:52:14;;;;;;;12.05;1.92;;;;;;;16.25;37.27;101787.72;5026810;27;97830;-75
2023/05/17 06:54:41;;;;;;;14.93;2.00;;;;;;;16.51;37.31;101789.25;5029744;27;97214;-76
2023/05/17 06:57:08;;;;;;;19.30;2.75;;;;;;;16.31;37.23;101784.78;5026108;27;96984;-76
2023/05/17 06:59:35;;;;;;;16.23;3.15;;;;;;;16.35;36.78;101786.38;5032153;27;99102;-75
2023/05/17 07:02:01;;;;;;;13.27;3.53;;;;;;;16.59;36.12;101782.66;5021455;27;98893;-75
2023/05/17 07:04:29;;;;;;;14.25;2.58;;;;;;;17.14;35.67;101789.06;5030105;27;96847;-75
2023/05/17 07:06:55;;;;;;;19.23;3.08;;;;;;;17.14;35.13;101781.03;5033311;27;97355;-75
2023/05/17 07:09:23;;;;;;;14.68;3.00;;;;;;;17.57;33.85;101779.03;5028704;27;99240;-76
2023/05/17 07:11:50;;;;;;;14.70;2.42;;;;;;;18.09;33.43;101787.19;5026747;27;100285;-76
2023/05/17 07:14:17;;;;;;;15.55;2.60;;;;;;;18.60;32.21;101795.25;5023527;27;96803;-76
2023/05/17 07:16:43;;;;;;;14.63;2.88;;;;;;;18.66;31.82;101792.25;5028487;27;97233;-75
2023/05/17 07:19:10;;;;;;;13.65;2.17;;;;;;;18.54;32.62;101789.31;5028177;27;97665;-74
2023/05/17 07:21:36;;;;;;;16.08;2.70;;;;;;;18.63;33.58;101794.22;5026665;27;98895;-75
2023/05/17 07:24:03;;;;;;;16.80;3.53;;;;;;;18.24;34.46;101792.63;5031921;27;96874;-75
2023/05/17 07:26:31;;;;;;;16.98;2.60;;;;;;;17.91;35.15;101797.00;5032443;27;96957;-74
2023/05/17 07:28:57;;;;;;;16.58;2.85;;;;;;;17.00;36.82;101801.34;5030915;27;97671;-75
2023/05/17 07:31:24;;;;;;;14.82;3.03;;;;;;;16.95;36.81;101806.00;5022611;27;99542;-74
2023/05/17 07:33:50;;;;;;;14.63;2.85;;;;;;;16.37;37.84;101799.66;5029071;27;98756;-75
2023/05/17 07:36:17;;;;;;;11.65;3.03;;;;;;;16.75;37.63;101820.22;5032755;27;96862;-74
2023/05/17 07:38:43;;;;;;;11.73;2.55;;;;;;;17.09;37.07;101809.78;5031363;27;99631;-75
2023/05/17 07:41:12;;;;;;;15.40;3.35;;;;;;;17.26;35.50;101811.69;5027729;27;99105;-76
2023/05/17 07:43:40;;;;;;;10.88;2.25;;;;;;;17.61;34.42;101809.16;5027567;27;96831;-75
2023/05/17 07:46:06;;;;;;;19.77;2.92;;;;;;;18.21;32.89;101818.66;5025498;27;100635;-75
2023/05/17 07:48:33;;;;;;;14.02;3.00;;;;;;;18.11;33.17;101834.31;5028343;27;97971;-75
2023/05/17 07:50:59;;;;;;;14.68;2.85;;;;;;;18.59;32.22;101836.34;5023357;27;99045;-76
2023/05/17 07:53:26;;;;;;;21.80;2.83;;;;;;;18.33;31.09;101840.31;5029075;27;96879;-75
2023/05/17 07:55:52;;;;;;;10.80;2.28;;;;;;;18.76;30.38;101843.50;5027727;27;96925;-76
2023/05/17 07:58:19;;;;;;;11.52;2.60;;;;;;;18.89;29.63;101843.72;5029494;27;98975;-76
2023/05/17 08:00:48;;;;;;;9.65;2.17;;;;;;;18.66;30.01;101839.56;5029916;27;99283;-75
2023/05/17 08:03:14;;;;;;;10.55;3.85;;;;;;;18.54;30.66;101838.34;5020527;27;97065;-75
2023/05/17 08:05:41;;;;;;;15.23;3.55;;;;;;;18.87;29.88;101849.16;5019121;27;97194;-75
2023/05/17 08:08:07;;;;;;;7.68;1.73;;;;;;;18.47;31.24;101853.00;5021098;27;99169;-76
2023/05/17 08:10:35;;;;;;;15.85;2.70;;;;;;;18.55;31.11;101855.28;5024637;27;99947;-75
2023/05/17 08:13:02;;;;;;;10.07;2.13;;;;;;;18.18;31.91;101859.78;5025881;27;97048;-74
2023/05/17 08:15:29;;;;;;;10.52;2.33;;;;;;;18.33;31.81;101867.06;5020470;27;97946;-76
2023/05/17 08:17:56;;;;;;;13.70;2.58;;;;;;;18.63;31.05;101864.69;5025014;27;99528;-75
2023/05/17 08:20:23;;;;;;;12.95;2.60;;;;;;;18.89;30.40;101859.78;5023073;27;99072;-74
2023/05/17 08:22:49;;;;;;;10.38;2.15;;;;;;;18.73;30.19;101862.41;5021695;27;96771;-75
2023/05/17 08:25:16;;;;;;;9.80;2.03;;;;;;;18.47;30.92;101863.69;5025275;27;97178;-74
2023/05/17 08:27:42;;;;;;;16.65;2.45;;;;;;;18.01;31.69;101856.22;5023195;27;99239;-74
2023/05/17 08:30:10;;;;;;;14.57;3.03;;;;;;;17.97;31.92;101863.56;5026939;27;98480;-75
2023/05/17 08:32:36;;;;;;;12.20;2.13;;;;;;;17.84;32.01;101868.63;5018473;27;96802;-74
2023/05/17 08:35:05;;;;;;;14.90;2.50;;;;;;;18.26;31.00;101871.00;5031424;27;96792;-76
2023/05/17 08:37:31;;;;;;;16.73;3.03;;;;;;;18.28;30.11;101869.13;5027342;27;99696;-75
2023/05/17 08:39:58;;;;;;;16.92;2.28;;;;;;;18.41;29.84;101866.69;5028604;27;97523;-77
2023/05/17 08:42:25;;;;;;;14.23;1.90;;;;;;;18.47;29.56;101874.41;5024186;27;99418;-75
2023/05/17 08:44:51;;;;;;;14.77;2.53;;;;;;;18.66;28.61;101875.22;5022232;27;97347;-74
2023/05/17 08:47:28;;;;;;;11.32;2.30;;;;;;;18.63;28.27;101878.09;5021743;27;99252;-74
2023/05/17 08:49:56;;;;;;;12.85;2.60;;;;;;;18.48;28.91;101886.84;5022239;28;100958;-76
2023/05/17 08:52:24;;;;;;;11.68;2.00;;;;;;;18.42;29.60;101879.13;5022513;27;97177;-76
2023/05/17 08:54:51;;;;;;;13.52;3.03;;;;;;;18.65;28.96;101889.56;5018246;27;97778;-76
2023/05/17 08:57:19;;;;;;;19.42;2.35;;;;;;;18.28;29.75;101873.59;5018486;27;101873;-76
2023/05/17 08:59:47;;;;;;;16.05;3.75;;;;;;;18.70;29.40;101875.97;5022024;27;99057;-75
2023/05/17 09:02:14;;;;;;;12.93;2.28;;;;;;;18.62;29.35;101873.66;5020792;27;97475;-76
2023/05/17 09:04:41;;;;;;;12.02;2.28;;;;;;;18.30;29.36;101867.25;5023680;27;97929;-76
2023/05/17 09:07:07;;;;;;;15.70;2.05;;;;;;;17.97;29.43;101873.38;5019601;27;99412;-76
2023/05/17 09:09:35;;;;;;;10.65;2.30;;;;;;;17.86;29.66;101876.53;5019405;27;98816;-75
2023/05/17 09:12:03;;;;;;;12.45;2.20;;;;;;;17.82;29.54;101881.19;5028293;27;96837;-75
2023/05/17 09:14:33;;;;;;;14.30;2.63;;;;;;;18.08;29.14;101871.03;5021348;27;96965;-76
2023/05/17 09:17:00;;;;;;;12.32;2.08;;;;;;;18.18;28.92;101866.97;5027964;27;101881;-75
2023/05/17 09:19:27;;;;;;;13.60;2.20;;;;;;;18.32;28.58;101869.81;5023372;27;100318;-75
2023/05/17 09:21:55;;;;;;;12.32;2.20;;;;;;;18.28;28.45;101871.78;5025871;27;97023;-75
2023/05/17 09:24:27;;;;;;;14.88;2.38;;;;;;;18.32;28.70;101869.81;5023188;27;97131;-75
2023/05/17 09:27:01;;;;;;;11.77;2.28;;;;;;;18.13;29.18;101863.66;5026784;27;97773;-75
2023/05/17 09:29:31;;;;;;;11.25;2.33;;;;;;;18.08;29.26;101865.69;5020373;27;98889;-75
2023/05/17 09:32:11;;;;;;;20.20;2.47;;;;;;;18.66;28.56;101871.69;5023289;27;97246;-74
2023/05/17 09:34:39;;;;;;;17.48;2.08;;;;;;;18.70;28.00;101878.63;5021265;27;97322;-74
2023/05/17 09:37:06;;;;;;;10.00;1.70;;;;;;;18.51;28.56;101865.25;5022673;27;98917;-74
2023/05/17 09:39:32;;;;;;;11.75;2.30;;;;;;;18.40;28.72;101872.97;5018857;27;98203;-76
2023/05/17 09:42:00;;;;;;;14.90;2.90;;;;;;;17.90;29.58;101871.00;5025636;27;96738;-76
2023/05/17 09:44:27;;;;;;;14.82;2.42;;;;;;;17.92;29.98;101865.56;5022110;27;97079;-75
2023/05/17 09:46:57;;;;;;;15.90;2.20;;;;;;;17.63;29.59;101869.63;5018524;27;98935;-76
2023/05/17 09:49:27;;;;;;;10.45;2.30;;;;;;;18.05;28.50;101865.84;5015997;27;99977;-76
2023/05/17 09:51:55;;;;;;;16.35;2.92;;;;;;;18.12;27.80;101876.16;5020200;27;96748;-75
2023/05/17 09:54:22;;;;;;;21.23;2.30;;;;;;;18.15;27.60;101878.69;5022864;27;97120;-74
2023/05/17 09:56:54;;;;;;;13.20;1.98;;;;;;;18.63;27.52;101879.91;5023481;27;99090;-76
2023/05/17 09:59:27;;;;;;;15.38;2.33;;;;;;;18.68;27.69;101884.06;5019564;27;98593;-75
2023/05/17 10:01:54;;;;;;;8.20;2.28;;;;;;;18.02;28.39;101876.69;5028652;27;96773;-74
2023/05/17 10:04:23;;;;;;;9.93;2.00;;;;;;;18.19;28.55;101880.25;5023968;27;97203;-75
2023/05/17 10:06:51;;;;;;;8.68;1.95;;;;;;;18.50;28.17;101884.09;5024234;27;97830;-76
2023/05/17 10:09:18;;;;;;;11.18;2.00;;;;;;;18.56;28.14;101876.66;5021063;27;98238;-75
2023/05/17 10:11:46;;;;;;;12.63;1.88;;;;;;;18.41;27.62;101879.19;5020536;27;97380;-74
2023/05/17 10:14:21;;;;;;;14.70;2.22;;;;;;;18.50;27.37;101893.00;5027539;27;97076;-75
2023/05/17 10:16:49;;;;;;;13.45;1.80;;;;;;;18.62;26.81;101887.06;5021135;27;99215;-75
2023/05/17 10:19:18;;;;;;;12.50;1.88;;;;;;;18.50;27.35;101895.69;5022241;27;99627;-75
2023/05/17 10:21:47;;;;;;;7.15;1.70;;;;;;;18.43;27.84;101888.91;5026023;27;97281;-77
2023/05/17 10:24:14;;;;;;;11.68;1.85;;;;;;;18.52;27.33;101888.41;5023736;27;97535;-76
2023/05/17 10:26:42;;;;;;;12.80;1.83;;;;;;;18.13;27.46;101882.38;5022825;27;98919;-75
2023/05/17 10:29:09;;;;;;;10.45;2.30;;;;;;;18.79;26.87;101879.94;5022704;27;101251;-75
2023/05/17 10:31:36;;;;;;;9.43;2.38;;;;;;;18.81;26.85;101878.94;5020811;27;96978;-75
2023/05/17 10:34:05;;;;;;;11.75;2.45;;;;;;;18.41;26.83;101874.72;5026732;27;96891;-74
2023/05/17 10:36:33;;;;;;;11.95;1.85;;;;;;;18.42;27.15;101881.81;5021752;27;99704;-75
2023/05/17 10:39:00;;;;;;;9.95;1.40;;;;;;;18.54;27.29;101875.84;5028498;27;99691;-75
2023/05/17 10:41:33;;;;;;;12.02;2.42;;;;;;;18.56;26.95;101884.69;5021984;27;97796;-76
2023/05/17 10:44:01;;;;;;;14.35;2.05;;;;;;;18.83;26.83;101890.44;5016521;27;97073;-75
2023/05/17 10:46:30;;;;;;;7.60;1.73;;;;;;;18.51;26.98;101886.69;5020604;27;98824;-74
2023/05/17 10:48:59;;;;;;;9.63;1.58;;;;;;;18.72;26.99;101906.19;5018489;27;99184;-74
2023/05/17 10:51:31;;;;;;;10.90;2.03;;;;;;;18.32;26.79;101912.63;5023089;27;97870;-77
2023/05/17 10:54:04;;;;;;;8.52;2.15;;;;;;;18.29;26.96;101902.09;5020875;27;97467;-74
2023/05/17 10:56:31;;;;;;;7.93;2.20;;;;;;;18.63;26.79;101895.97;5020908;27;101801;-74
2023/05/17 10:59:21;;;;;;;9.57;2.00;;;;;;;18.83;26.80;101895.81;5011126;27;98999;-74
2023/05/17 11:01:58;;;;;;;8.43;2.05;;;;;;;19.30;26.37;101901.31;5014166;27;98436;-75
2023/05/17 11:04:26;;;;;;;8.43;2.03;;;;;;;19.13;27.30;101901.34;5015661;27;97611;-74
2023/05/17 11:07:15;;;;;;;10.52;2.15;;;;;;;19.37;27.05;101893.81;5013933;27;99267;-74
2023/05/17 11:09:42;;;;;;;7.78;2.10;;;;;;;19.00;27.28;101898.47;5021381;27;100974;-74
2023/05/17 11:12:10;;;;;;;11.82;1.88;;;;;;;19.20;26.93;101901.91;5014553;27;98551;-75
2023/05/17 11:14:51;;;;;;;9.77;1.65;;;;;;;18.93;27.18;101893.50;5013957;27;98862;-74
2023/05/17 11:17:20;;;;;;;13.82;2.47;;;;;;;18.84;27.48;101892.16;5015347;27;99298;-75
2023/05/17 11:19:55;;;;;;;12.73;2.20;;;;;;;19.22;26.97;101898.19;5014958;27;99368;-75